Gdansk Airport, Poland

2:29 PM CEST on September 16, 2014 (GMT +0200)
Rebiechowo | Change Station
CLOSE
Current Station
Airport
Location: Gdansk Airport,
Elevation: 453 ft
Nearby Weather Stations

Elev 453 ft 54.38 °N, 18.47 °E | Updated 29 minutes ago

Clear
Clear
64 °F
Feels Like 64 °F
N
10
Wind Variable Wind from East

Today
High -- | Low -- °F
--% Chance of Precip.
Yesterday
High -- | Low -- °F
Precip. -- in
6:20 AM 7:00 PM
Last Quarter, 46% visible
Pressure 30.24 in
Visibility -9999.0 miles
Clouds
Dew Point 54 °F
Humidity 68%
Rainfall 0.00 in
Snow Depth Not available.
UV Not available.
Pollen Not available.
Air Quality Not available.
Flu Activity Not available.
METAR EPGD 161200Z 08009KT CAVOK 18/12 Q1024

More Conditions Fewer Conditions

Pressure 30.24 in
Visibility -9999.0 miles
Clouds
Dew Point 54 °F
Humidity 68%
Rainfall 0.00 in
Snow Depth Not available.
UV Not available.
Pollen Not available.
Air Quality Not available.
Flu Activity Not available.
METAR EPGD 161200Z 08009KT CAVOK 18/12 Q1024

More Conditions Fewer Conditions

10-Day Weather Forecast

Almanac

Astronomy

Sep. 16, 2014 Rise Set
Actual Time 6:20 AM CEST 7:00 PM CEST
Civil Twilight 5:44 AM CEST 7:36 PM CEST
Nautical Twilight 5:00 AM CEST 8:19 PM CEST
Astronomical Twilight 4:14 AM CEST 9:05 PM CEST
Moon 11:26 PM CEST 2:50 PM CEST
Length of Visible Light 13h 52m
Length of Day
12h 40m
Tomorrow will be 4m 21s shorter.
Last Quarter, 46% of the Moon is Illuminated
Today
Last Quarter
Sep 24
New
Oct 1
First Quarter
Oct 8
Full
Oct 15
Last Quarter

Yesterday's Extremes

Country Highs Country Lows

Community

WunderPhotos

Upload Photos

1,753,754 photos uploaded!

Nearby

Snow Depth

Not available.

Earthquake Activity

City Distance Mag. Time & Date
No recent earthquake activity has been reported nearby.
Minimum magnitude displayed is 2.5.

Coastal Water Temperatures

Place Temperature
No Stations Reporting

Nearby Weather Stations